sensor_id;sensor_type;location;lat;lon;timestamp;P1;durP1;ratioP1;P2;durP2;ratioP2
77451;SDS011;66537;52.370;4.832;2023-08-08T00:01:43;10.82;;;2.78;;
77451;SDS011;66537;52.370;4.832;2023-08-08T00:04:09;11.63;;;3.58;;
77451;SDS011;66537;52.370;4.832;2023-08-08T00:06:35;11.30;;;2.88;;
77451;SDS011;66537;52.370;4.832;2023-08-08T00:09:01;13.93;;;2.83;;
77451;SDS011;66537;52.370;4.832;2023-08-08T00:11:28;10.85;;;3.10;;
77451;SDS011;66537;52.370;4.832;2023-08-08T00:13:54;12.93;;;3.22;;
77451;SDS011;66537;52.370;4.832;2023-08-08T00:16:19;11.60;;;3.72;;
77451;SDS011;66537;52.370;4.832;2023-08-08T00:18:44;8.23;;;2.83;;
77451;SDS011;66537;52.370;4.832;2023-08-08T00:21:10;9.15;;;2.88;;
77451;SDS011;66537;52.370;4.832;2023-08-08T00:23:35;12.07;;;3.30;;
77451;SDS011;66537;52.370;4.832;2023-08-08T00:26:01;13.27;;;3.00;;
77451;SDS011;66537;52.370;4.832;2023-08-08T00:28:26;10.88;;;2.30;;
77451;SDS011;66537;52.370;4.832;2023-08-08T00:30:51;12.18;;;2.88;;
77451;SDS011;66537;52.370;4.832;2023-08-08T00:33:17;8.88;;;2.88;;
77451;SDS011;66537;52.370;4.832;2023-08-08T00:35:42;16.23;;;2.90;;
77451;SDS011;66537;52.370;4.832;2023-08-08T00:38:08;8.63;;;2.42;;
77451;SDS011;66537;52.370;4.832;2023-08-08T00:40:34;8.55;;;2.28;;
77451;SDS011;66537;52.370;4.832;2023-08-08T00:42:59;6.93;;;2.10;;
77451;SDS011;66537;52.370;4.832;2023-08-08T00:45:25;10.87;;;2.60;;
77451;SDS011;66537;52.370;4.832;2023-08-08T00:47:50;5.63;;;1.63;;
77451;SDS011;66537;52.370;4.832;2023-08-08T00:50:16;9.60;;;1.92;;
77451;SDS011;66537;52.370;4.832;2023-08-08T00:52:43;8.38;;;2.42;;
77451;SDS011;66537;52.370;4.832;2023-08-08T00:55:09;5.15;;;1.60;;
77451;SDS011;66537;52.370;4.832;2023-08-08T00:57:34;9.25;;;2.00;;
77451;SDS011;66537;52.370;4.832;2023-08-08T01:00:04;8.35;;;2.30;;
77451;SDS011;66537;52.370;4.832;2023-08-08T01:02:31;5.80;;;1.75;;
77451;SDS011;66537;52.370;4.832;2023-08-08T01:04:56;8.43;;;1.90;;
77451;SDS011;66537;52.370;4.832;2023-08-08T01:12:15;10.63;;;1.90;;
77451;SDS011;66537;52.370;4.832;2023-08-08T01:14:42;6.82;;;1.73;;
77451;SDS011;66537;52.370;4.832;2023-08-08T01:17:08;9.93;;;1.90;;
77451;SDS011;66537;52.370;4.832;2023-08-08T01:19:35;7.22;;;1.52;;
77451;SDS011;66537;52.370;4.832;2023-08-08T01:22:02;17.75;;;1.92;;
77451;SDS011;66537;52.370;4.832;2023-08-08T01:24:30;7.70;;;1.20;;
77451;SDS011;66537;52.370;4.832;2023-08-08T01:26:58;10.32;;;1.45;;
77451;SDS011;66537;52.370;4.832;2023-08-08T01:29:25;9.77;;;1.50;;
77451;SDS011;66537;52.370;4.832;2023-08-08T01:31:50;12.00;;;1.30;;
77451;SDS011;66537;52.370;4.832;2023-08-08T01:34:16;10.43;;;1.83;;
77451;SDS011;66537;52.370;4.832;2023-08-08T01:37:02;13.40;;;1.30;;
77451;SDS011;66537;52.370;4.832;2023-08-08T01:39:30;7.93;;;1.02;;
77451;SDS011;66537;52.370;4.832;2023-08-08T01:41:58;6.13;;;1.35;;
77451;SDS011;66537;52.370;4.832;2023-08-08T01:44:25;7.43;;;1.42;;
77451;SDS011;66537;52.370;4.832;2023-08-08T01:46:52;4.65;;;0.90;;
77451;SDS011;66537;52.370;4.832;2023-08-08T01:49:18;6.35;;;1.50;;
77451;SDS011;66537;52.370;4.832;2023-08-08T01:51:43;10.32;;;1.33;;
77451;SDS011;66537;52.370;4.832;2023-08-08T01:54:08;8.13;;;1.13;;
77451;SDS011;66537;52.370;4.832;2023-08-08T01:56:34;10.60;;;1.45;;
77451;SDS011;66537;52.370;4.832;2023-08-08T01:58:59;13.27;;;2.00;;
77451;SDS011;66537;52.370;4.832;2023-08-08T02:01:25;5.70;;;1.15;;
77451;SDS011;66537;52.370;4.832;2023-08-08T02:03:50;8.02;;;1.50;;
77451;SDS011;66537;52.370;4.832;2023-08-08T02:06:16;6.47;;;0.90;;
77451;SDS011;66537;52.370;4.832;2023-08-08T02:08:41;9.50;;;1.55;;
77451;SDS011;66537;52.370;4.832;2023-08-08T02:11:07;7.05;;;1.20;;
77451;SDS011;66537;52.370;4.832;2023-08-08T02:13:32;8.20;;;1.40;;
77451;SDS011;66537;52.370;4.832;2023-08-08T02:15:57;7.32;;;1.50;;
77451;SDS011;66537;52.370;4.832;2023-08-08T02:18:23;7.40;;;1.43;;
77451;SDS011;66537;52.370;4.832;2023-08-08T02:20:48;7.38;;;1.42;;
77451;SDS011;66537;52.370;4.832;2023-08-08T02:23:16;7.03;;;1.53;;
77451;SDS011;66537;52.370;4.832;2023-08-08T02:25:42;7.15;;;1.65;;
77451;SDS011;66537;52.370;4.832;2023-08-08T02:28:07;6.00;;;1.25;;
77451;SDS011;66537;52.370;4.832;2023-08-08T02:30:33;4.93;;;1.30;;
77451;SDS011;66537;52.370;4.832;2023-08-08T02:32:58;11.40;;;1.70;;
77451;SDS011;66537;52.370;4.832;2023-08-08T02:35:24;5.32;;;1.05;;
77451;SDS011;66537;52.370;4.832;2023-08-08T02:37:49;8.90;;;1.25;;
77451;SDS011;66537;52.370;4.832;2023-08-08T02:40:14;9.30;;;1.58;;
77451;SDS011;66537;52.370;4.832;2023-08-08T02:42:40;7.80;;;1.30;;
77451;SDS011;66537;52.370;4.832;2023-08-08T02:45:05;4.20;;;0.90;;
77451;SDS011;66537;52.370;4.832;2023-08-08T02:47:31;6.85;;;1.23;;
77451;SDS011;66537;52.370;4.832;2023-08-08T02:49:56;7.87;;;1.20;;
77451;SDS011;66537;52.370;4.832;2023-08-08T02:52:22;7.97;;;1.77;;
77451;SDS011;66537;52.370;4.832;2023-08-08T02:54:47;7.53;;;1.33;;
77451;SDS011;66537;52.370;4.832;2023-08-08T02:57:13;7.22;;;1.10;;
77451;SDS011;66537;52.370;4.832;2023-08-08T02:59:38;7.15;;;0.90;;
77451;SDS011;66537;52.370;4.832;2023-08-08T03:02:04;8.45;;;1.10;;
77451;SDS011;66537;52.370;4.832;2023-08-08T03:04:29;7.40;;;1.33;;
77451;SDS011;66537;52.370;4.832;2023-08-08T03:06:55;8.02;;;1.02;;
77451;SDS011;66537;52.370;4.832;2023-08-08T03:09:20;6.47;;;0.95;;
77451;SDS011;66537;52.370;4.832;2023-08-08T03:11:46;6.80;;;1.08;;
77451;SDS011;66537;52.370;4.832;2023-08-08T03:14:11;8.57;;;1.20;;
77451;SDS011;66537;52.370;4.832;2023-08-08T03:16:37;8.10;;;1.35;;
77451;SDS011;66537;52.370;4.832;2023-08-08T03:19:02;8.15;;;1.17;;
77451;SDS011;66537;52.370;4.832;2023-08-08T03:21:28;5.28;;;0.88;;
77451;SDS011;66537;52.370;4.832;2023-08-08T03:23:53;5.82;;;0.85;;
77451;SDS011;66537;52.370;4.832;2023-08-08T03:26:19;8.98;;;2.05;;
77451;SDS011;66537;52.370;4.832;2023-08-08T03:28:44;8.80;;;1.30;;
77451;SDS011;66537;52.370;4.832;2023-08-08T03:31:10;9.13;;;1.33;;
77451;SDS011;66537;52.370;4.832;2023-08-08T03:33:35;6.68;;;1.10;;
77451;SDS011;66537;52.370;4.832;2023-08-08T03:36:00;7.32;;;1.38;;
77451;SDS011;66537;52.370;4.832;2023-08-08T03:38:26;7.05;;;0.93;;
77451;SDS011;66537;52.370;4.832;2023-08-08T03:40:51;7.40;;;1.20;;
77451;SDS011;66537;52.370;4.832;2023-08-08T03:43:16;4.43;;;0.85;;
77451;SDS011;66537;52.370;4.832;2023-08-08T03:45:42;8.02;;;1.45;;
77451;SDS011;66537;52.370;4.832;2023-08-08T03:48:10;5.85;;;1.08;;
77451;SDS011;66537;52.370;4.832;2023-08-08T03:50:35;6.18;;;1.25;;
77451;SDS011;66537;52.370;4.832;2023-08-08T03:53:01;7.78;;;1.35;;
77451;SDS011;66537;52.370;4.832;2023-08-08T03:55:26;5.93;;;1.20;;
77451;SDS011;66537;52.370;4.832;2023-08-08T03:57:52;5.07;;;0.90;;
77451;SDS011;66537;52.370;4.832;2023-08-08T04:00:17;8.03;;;0.90;;
77451;SDS011;66537;52.370;4.832;2023-08-08T04:02:42;8.55;;;1.27;;
77451;SDS011;66537;52.370;4.832;2023-08-08T04:05:08;7.55;;;1.13;;
77451;SDS011;66537;52.370;4.832;2023-08-08T04:07:34;7.60;;;1.58;;
77451;SDS011;66537;52.370;4.832;2023-08-08T04:09:59;6.35;;;1.27;;
77451;SDS011;66537;52.370;4.832;2023-08-08T04:12:25;6.68;;;0.80;;
77451;SDS011;66537;52.370;4.832;2023-08-08T04:14:51;11.25;;;1.30;;
77451;SDS011;66537;52.370;4.832;2023-08-08T04:17:16;7.55;;;1.40;;
77451;SDS011;66537;52.370;4.832;2023-08-08T04:19:42;9.38;;;1.27;;
77451;SDS011;66537;52.370;4.832;2023-08-08T04:22:07;6.85;;;1.50;;
77451;SDS011;66537;52.370;4.832;2023-08-08T04:24:32;12.48;;;1.67;;
77451;SDS011;66537;52.370;4.832;2023-08-08T04:26:58;8.88;;;1.15;;
77451;SDS011;66537;52.370;4.832;2023-08-08T04:29:23;11.23;;;1.33;;
77451;SDS011;66537;52.370;4.832;2023-08-08T04:31:48;8.32;;;1.25;;
77451;SDS011;66537;52.370;4.832;2023-08-08T04:34:14;11.00;;;1.50;;
77451;SDS011;66537;52.370;4.832;2023-08-08T04:36:39;8.82;;;1.00;;
77451;SDS011;66537;52.370;4.832;2023-08-08T04:39:04;9.23;;;1.40;;
77451;SDS011;66537;52.370;4.832;2023-08-08T04:41:30;9.73;;;1.33;;
77451;SDS011;66537;52.370;4.832;2023-08-08T04:43:55;10.20;;;1.57;;
77451;SDS011;66537;52.370;4.832;2023-08-08T04:46:21;5.63;;;1.13;;
77451;SDS011;66537;52.370;4.832;2023-08-08T04:48:46;6.82;;;1.30;;
77451;SDS011;66537;52.370;4.832;2023-08-08T04:51:11;12.13;;;1.30;;
77451;SDS011;66537;52.370;4.832;2023-08-08T04:53:37;4.10;;;1.02;;
77451;SDS011;66537;52.370;4.832;2023-08-08T04:56:02;8.35;;;1.40;;
77451;SDS011;66537;52.370;4.832;2023-08-08T04:58:28;6.10;;;1.33;;
77451;SDS011;66537;52.370;4.832;2023-08-08T05:00:53;8.77;;;1.43;;
77451;SDS011;66537;52.370;4.832;2023-08-08T05:03:20;10.93;;;1.00;;
77451;SDS011;66537;52.370;4.832;2023-08-08T05:05:45;6.88;;;1.42;;
77451;SDS011;66537;52.370;4.832;2023-08-08T05:08:12;7.68;;;1.05;;
77451;SDS011;66537;52.370;4.832;2023-08-08T05:10:38;6.05;;;1.05;;
77451;SDS011;66537;52.370;4.832;2023-08-08T05:13:03;9.02;;;1.20;;
77451;SDS011;66537;52.370;4.832;2023-08-08T05:15:29;7.72;;;1.48;;
77451;SDS011;66537;52.370;4.832;2023-08-08T05:17:54;7.40;;;1.67;;
77451;SDS011;66537;52.370;4.832;2023-08-08T05:20:20;14.43;;;1.58;;
77451;SDS011;66537;52.370;4.832;2023-08-08T05:22:46;4.60;;;0.93;;
77451;SDS011;66537;52.370;4.832;2023-08-08T05:25:11;6.75;;;1.65;;
77451;SDS011;66537;52.370;4.832;2023-08-08T05:27:37;11.53;;;2.00;;
77451;SDS011;66537;52.370;4.832;2023-08-08T05:30:02;10.67;;;1.30;;
77451;SDS011;66537;52.370;4.832;2023-08-08T05:32:28;8.50;;;1.88;;
77451;SDS011;66537;52.370;4.832;2023-08-08T05:34:53;8.65;;;1.17;;
77451;SDS011;66537;52.370;4.832;2023-08-08T05:37:20;9.20;;;1.33;;
77451;SDS011;66537;52.370;4.832;2023-08-08T05:39:45;5.43;;;1.27;;
77451;SDS011;66537;52.370;4.832;2023-08-08T05:42:11;7.97;;;1.23;;
77451;SDS011;66537;52.370;4.832;2023-08-08T05:44:36;7.05;;;0.80;;
77451;SDS011;66537;52.370;4.832;2023-08-08T05:47:01;4.70;;;0.88;;
77451;SDS011;66537;52.370;4.832;2023-08-08T05:49:27;9.43;;;1.52;;
77451;SDS011;66537;52.370;4.832;2023-08-08T05:51:52;6.28;;;0.70;;
77451;SDS011;66537;52.370;4.832;2023-08-08T05:54:17;8.77;;;1.10;;
77451;SDS011;66537;52.370;4.832;2023-08-08T05:56:43;15.80;;;4.65;;
77451;SDS011;66537;52.370;4.832;2023-08-08T05:59:08;4.38;;;1.13;;
77451;SDS011;66537;52.370;4.832;2023-08-08T06:01:34;11.15;;;0.85;;
77451;SDS011;66537;52.370;4.832;2023-08-08T06:03:59;7.53;;;0.75;;
77451;SDS011;66537;52.370;4.832;2023-08-08T06:06:25;8.52;;;0.90;;
77451;SDS011;66537;52.370;4.832;2023-08-08T06:08:51;5.68;;;0.70;;
77451;SDS011;66537;52.370;4.832;2023-08-08T06:11:17;7.90;;;1.00;;
77451;SDS011;66537;52.370;4.832;2023-08-08T06:13:42;5.43;;;0.80;;
77451;SDS011;66537;52.370;4.832;2023-08-08T06:16:08;5.60;;;0.68;;
77451;SDS011;66537;52.370;4.832;2023-08-08T06:18:33;4.85;;;1.02;;
77451;SDS011;66537;52.370;4.832;2023-08-08T06:20:59;5.70;;;0.73;;
77451;SDS011;66537;52.370;4.832;2023-08-08T06:23:24;5.22;;;0.98;;
77451;SDS011;66537;52.370;4.832;2023-08-08T06:25:49;5.60;;;1.25;;
77451;SDS011;66537;52.370;4.832;2023-08-08T06:28:15;4.93;;;0.80;;
77451;SDS011;66537;52.370;4.832;2023-08-08T06:30:40;5.53;;;1.40;;
77451;SDS011;66537;52.370;4.832;2023-08-08T06:33:06;8.00;;;0.77;;
77451;SDS011;66537;52.370;4.832;2023-08-08T06:35:31;5.40;;;0.88;;
77451;SDS011;66537;52.370;4.832;2023-08-08T06:37:56;7.38;;;0.60;;
77451;SDS011;66537;52.370;4.832;2023-08-08T06:40:22;3.67;;;0.90;;
77451;SDS011;66537;52.370;4.832;2023-08-08T06:42:48;13.23;;;1.30;;
77451;SDS011;66537;52.370;4.832;2023-08-08T06:45:14;7.07;;;0.85;;
77451;SDS011;66537;52.370;4.832;2023-08-08T06:47:39;7.90;;;0.85;;
77451;SDS011;66537;52.370;4.832;2023-08-08T06:50:05;10.32;;;1.05;;
77451;SDS011;66537;52.370;4.832;2023-08-08T06:52:31;4.07;;;0.85;;
77451;SDS011;66537;52.370;4.832;2023-08-08T06:54:56;6.80;;;1.00;;
77451;SDS011;66537;52.370;4.832;2023-08-08T06:57:22;7.57;;;1.10;;
77451;SDS011;66537;52.370;4.832;2023-08-08T06:59:47;4.70;;;0.73;;
77451;SDS011;66537;52.370;4.832;2023-08-08T07:02:15;6.90;;;1.17;;
77451;SDS011;66537;52.370;4.832;2023-08-08T07:04:41;5.95;;;0.73;;
77451;SDS011;66537;52.370;4.832;2023-08-08T07:07:07;4.22;;;0.75;;
77451;SDS011;66537;52.370;4.832;2023-08-08T07:09:32;5.65;;;0.68;;
77451;SDS011;66537;52.370;4.832;2023-08-08T07:11:58;2.72;;;0.68;;
77451;SDS011;66537;52.370;4.832;2023-08-08T07:14:23;6.05;;;1.15;;
77451;SDS011;66537;52.370;4.832;2023-08-08T07:16:48;8.45;;;1.20;;
77451;SDS011;66537;52.370;4.832;2023-08-08T07:19:14;8.48;;;1.10;;
77451;SDS011;66537;52.370;4.832;2023-08-08T07:21:40;8.45;;;1.25;;
77451;SDS011;66537;52.370;4.832;2023-08-08T07:24:06;7.60;;;0.80;;
77451;SDS011;66537;52.370;4.832;2023-08-08T07:26:31;11.52;;;1.35;;
77451;SDS011;66537;52.370;4.832;2023-08-08T07:28:57;6.85;;;1.05;;
77451;SDS011;66537;52.370;4.832;2023-08-08T07:31:22;5.28;;;1.30;;
77451;SDS011;66537;52.370;4.832;2023-08-08T07:33:48;8.40;;;1.27;;
77451;SDS011;66537;52.370;4.832;2023-08-08T07:36:13;12.43;;;1.33;;
77451;SDS011;66537;52.370;4.832;2023-08-08T07:38:38;5.53;;;0.80;;
77451;SDS011;66537;52.370;4.832;2023-08-08T07:41:04;6.80;;;0.85;;
77451;SDS011;66537;52.370;4.832;2023-08-08T07:43:29;8.18;;;1.02;;
77451;SDS011;66537;52.370;4.832;2023-08-08T07:45:55;3.90;;;1.00;;
77451;SDS011;66537;52.370;4.832;2023-08-08T07:48:20;4.90;;;1.07;;
77451;SDS011;66537;52.370;4.832;2023-08-08T07:50:45;6.65;;;0.90;;
77451;SDS011;66537;52.370;4.832;2023-08-08T07:53:11;8.43;;;1.13;;
77451;SDS011;66537;52.370;4.832;2023-08-08T07:55:36;8.38;;;1.15;;
77451;SDS011;66537;52.370;4.832;2023-08-08T07:58:01;5.63;;;0.55;;
77451;SDS011;66537;52.370;4.832;2023-08-08T08:00:27;5.72;;;1.23;;
77451;SDS011;66537;52.370;4.832;2023-08-08T08:02:52;7.97;;;1.10;;
77451;SDS011;66537;52.370;4.832;2023-08-08T08:05:17;5.80;;;1.07;;
77451;SDS011;66537;52.370;4.832;2023-08-08T08:07:43;6.30;;;1.48;;
77451;SDS011;66537;52.370;4.832;2023-08-08T08:10:09;7.90;;;1.42;;
77451;SDS011;66537;52.370;4.832;2023-08-08T08:12:38;9.40;;;1.10;;
77451;SDS011;66537;52.370;4.832;2023-08-08T08:15:06;3.88;;;0.85;;
77451;SDS011;66537;52.370;4.832;2023-08-08T08:17:32;7.43;;;0.82;;
77451;SDS011;66537;52.370;4.832;2023-08-08T08:19:58;3.38;;;0.60;;
77451;SDS011;66537;52.370;4.832;2023-08-08T08:22:23;4.63;;;0.80;;
77451;SDS011;66537;52.370;4.832;2023-08-08T08:24:49;3.58;;;0.90;;
77451;SDS011;66537;52.370;4.832;2023-08-08T08:27:15;6.15;;;0.70;;
77451;SDS011;66537;52.370;4.832;2023-08-08T08:29:40;7.55;;;0.68;;
77451;SDS011;66537;52.370;4.832;2023-08-08T08:32:06;5.72;;;0.80;;
77451;SDS011;66537;52.370;4.832;2023-08-08T08:34:31;5.65;;;0.70;;
77451;SDS011;66537;52.370;4.832;2023-08-08T08:36:56;6.47;;;1.20;;
77451;SDS011;66537;52.370;4.832;2023-08-08T08:39:22;5.47;;;0.88;;
77451;SDS011;66537;52.370;4.832;2023-08-08T08:41:48;4.00;;;0.68;;
77451;SDS011;66537;52.370;4.832;2023-08-08T08:44:19;4.10;;;1.05;;
77451;SDS011;66537;52.370;4.832;2023-08-08T08:46:46;4.65;;;0.90;;
77451;SDS011;66537;52.370;4.832;2023-08-08T08:49:13;5.20;;;1.00;;
77451;SDS011;66537;52.370;4.832;2023-08-08T08:51:40;5.95;;;0.82;;
77451;SDS011;66537;52.370;4.832;2023-08-08T08:54:05;5.60;;;1.15;;
77451;SDS011;66537;52.370;4.832;2023-08-08T08:56:31;4.95;;;0.88;;
77451;SDS011;66537;52.370;4.832;2023-08-08T08:58:58;5.13;;;0.80;;
77451;SDS011;66537;52.370;4.832;2023-08-08T09:01:24;5.60;;;0.90;;
77451;SDS011;66537;52.370;4.832;2023-08-08T09:03:49;3.85;;;0.75;;
77451;SDS011;66537;52.370;4.832;2023-08-08T09:06:15;7.28;;;0.98;;
77451;SDS011;66537;52.370;4.832;2023-08-08T09:08:41;5.72;;;1.27;;
77451;SDS011;66537;52.370;4.832;2023-08-08T09:11:06;7.45;;;0.80;;
77451;SDS011;66537;52.370;4.832;2023-08-08T09:13:38;8.85;;;1.23;;
77451;SDS011;66537;52.370;4.832;2023-08-08T09:16:07;7.22;;;1.10;;
77451;SDS011;66537;52.370;4.832;2023-08-08T09:18:34;6.75;;;0.88;;
77451;SDS011;66537;52.370;4.832;2023-08-08T09:21:03;3.80;;;0.60;;
77451;SDS011;66537;52.370;4.832;2023-08-08T09:23:29;4.00;;;0.75;;
77451;SDS011;66537;52.370;4.832;2023-08-08T09:25:54;4.07;;;0.85;;
77451;SDS011;66537;52.370;4.832;2023-08-08T09:28:19;8.38;;;1.42;;
77451;SDS011;66537;52.370;4.832;2023-08-08T09:30:45;4.93;;;1.08;;
77451;SDS011;66537;52.370;4.832;2023-08-08T09:33:11;5.28;;;0.98;;
77451;SDS011;66537;52.370;4.832;2023-08-08T09:35:39;5.18;;;1.00;;
77451;SDS011;66537;52.370;4.832;2023-08-08T09:38:05;5.00;;;0.95;;
77451;SDS011;66537;52.370;4.832;2023-08-08T09:40:31;3.20;;;0.70;;
77451;SDS011;66537;52.370;4.832;2023-08-08T09:42:56;5.80;;;0.90;;
77451;SDS011;66537;52.370;4.832;2023-08-08T09:45:23;9.07;;;1.15;;
77451;SDS011;66537;52.370;4.832;2023-08-08T09:47:52;8.80;;;1.40;;
77451;SDS011;66537;52.370;4.832;2023-08-08T09:50:17;6.43;;;1.00;;
77451;SDS011;66537;52.370;4.832;2023-08-08T09:52:45;15.55;;;1.35;;
77451;SDS011;66537;52.370;4.832;2023-08-08T09:55:11;5.53;;;1.20;;
77451;SDS011;66537;52.370;4.832;2023-08-08T09:57:38;4.53;;;1.05;;
77451;SDS011;66537;52.370;4.832;2023-08-08T10:00:04;5.97;;;1.10;;
77451;SDS011;66537;52.370;4.832;2023-08-08T10:02:35;6.90;;;1.40;;
77451;SDS011;66537;52.370;4.832;2023-08-08T10:05:01;7.57;;;0.82;;
77451;SDS011;66537;52.370;4.832;2023-08-08T10:07:29;6.72;;;1.35;;
77451;SDS011;66537;52.370;4.832;2023-08-08T10:09:55;6.20;;;1.35;;
77451;SDS011;66537;52.370;4.832;2023-08-08T10:12:21;10.20;;;1.40;;
77451;SDS011;66537;52.370;4.832;2023-08-08T10:14:48;6.55;;;1.20;;
77451;SDS011;66537;52.370;4.832;2023-08-08T10:17:15;6.68;;;1.13;;
77451;SDS011;66537;52.370;4.832;2023-08-08T10:19:49;6.03;;;1.15;;
77451;SDS011;66537;52.370;4.832;2023-08-08T10:22:15;3.97;;;1.27;;
77451;SDS011;66537;52.370;4.832;2023-08-08T10:24:46;7.95;;;0.82;;
77451;SDS011;66537;52.370;4.832;2023-08-08T10:27:13;5.45;;;0.95;;
77451;SDS011;66537;52.370;4.832;2023-08-08T10:29:40;8.48;;;1.08;;
77451;SDS011;66537;52.370;4.832;2023-08-08T10:32:06;4.88;;;1.13;;
77451;SDS011;66537;52.370;4.832;2023-08-08T10:34:41;6.35;;;1.40;;
77451;SDS011;66537;52.370;4.832;2023-08-08T10:37:11;6.32;;;1.15;;
77451;SDS011;66537;52.370;4.832;2023-08-08T10:39:53;8.00;;;1.63;;
77451;SDS011;66537;52.370;4.832;2023-08-08T10:42:22;4.22;;;1.30;;
77451;SDS011;66537;52.370;4.832;2023-08-08T10:44:56;7.15;;;0.90;;
77451;SDS011;66537;52.370;4.832;2023-08-08T10:47:24;3.35;;;0.98;;
77451;SDS011;66537;52.370;4.832;2023-08-08T10:49:59;9.25;;;1.48;;
77451;SDS011;66537;52.370;4.832;2023-08-08T10:52:28;8.38;;;1.23;;
77451;SDS011;66537;52.370;4.832;2023-08-08T10:54:54;4.93;;;0.95;;
77451;SDS011;66537;52.370;4.832;2023-08-08T10:57:20;11.05;;;1.05;;
77451;SDS011;66537;52.370;4.832;2023-08-08T11:02:15;6.47;;;0.97;;
77451;SDS011;66537;52.370;4.832;2023-08-08T11:04:42;5.13;;;0.95;;
77451;SDS011;66537;52.370;4.832;2023-08-08T11:07:08;4.65;;;1.13;;
77451;SDS011;66537;52.370;4.832;2023-08-08T11:09:34;8.27;;;1.20;;
77451;SDS011;66537;52.370;4.832;2023-08-08T11:11:59;6.40;;;0.98;;
77451;SDS011;66537;52.370;4.832;2023-08-08T11:14:25;5.95;;;1.20;;
77451;SDS011;66537;52.370;4.832;2023-08-08T11:16:51;8.57;;;1.23;;
77451;SDS011;66537;52.370;4.832;2023-08-08T11:19:16;5.90;;;1.10;;
77451;SDS011;66537;52.370;4.832;2023-08-08T11:21:44;7.53;;;1.45;;
77451;SDS011;66537;52.370;4.832;2023-08-08T11:24:11;7.60;;;1.30;;
77451;SDS011;66537;52.370;4.832;2023-08-08T11:26:38;8.98;;;1.17;;
77451;SDS011;66537;52.370;4.832;2023-08-08T11:29:06;8.35;;;1.23;;
77451;SDS011;66537;52.370;4.832;2023-08-08T11:31:35;4.43;;;1.02;;
77451;SDS011;66537;52.370;4.832;2023-08-08T11:34:01;9.63;;;1.35;;
77451;SDS011;66537;52.370;4.832;2023-08-08T11:36:30;8.68;;;0.93;;
77451;SDS011;66537;52.370;4.832;2023-08-08T11:38:58;6.05;;;1.00;;
77451;SDS011;66537;52.370;4.832;2023-08-08T11:41:26;7.63;;;1.27;;
77451;SDS011;66537;52.370;4.832;2023-08-08T11:43:51;5.78;;;1.00;;
77451;SDS011;66537;52.370;4.832;2023-08-08T11:46:18;6.18;;;0.98;;
77451;SDS011;66537;52.370;4.832;2023-08-08T11:48:46;9.40;;;1.25;;
77451;SDS011;66537;52.370;4.832;2023-08-08T11:51:13;4.28;;;1.10;;
77451;SDS011;66537;52.370;4.832;2023-08-08T11:53:47;7.40;;;0.85;;
77451;SDS011;66537;52.370;4.832;2023-08-08T11:56:15;4.05;;;0.90;;
77451;SDS011;66537;52.370;4.832;2023-08-08T11:58:40;2.97;;;0.90;;
77451;SDS011;66537;52.370;4.832;2023-08-08T12:01:06;5.40;;;1.00;;
77451;SDS011;66537;52.370;4.832;2023-08-08T12:03:31;5.35;;;0.70;;
77451;SDS011;66537;52.370;4.832;2023-08-08T12:05:57;10.00;;;1.27;;
77451;SDS011;66537;52.370;4.832;2023-08-08T12:08:23;8.02;;;1.02;;
77451;SDS011;66537;52.370;4.832;2023-08-08T12:10:49;9.32;;;1.23;;
77451;SDS011;66537;52.370;4.832;2023-08-08T12:13:22;5.13;;;0.95;;
77451;SDS011;66537;52.370;4.832;2023-08-08T12:15:48;8.60;;;0.80;;
77451;SDS011;66537;52.370;4.832;2023-08-08T12:18:17;4.53;;;1.05;;
77451;SDS011;66537;52.370;4.832;2023-08-08T12:20:43;3.83;;;0.77;;
77451;SDS011;66537;52.370;4.832;2023-08-08T12:23:09;5.38;;;0.98;;
77451;SDS011;66537;52.370;4.832;2023-08-08T12:25:35;4.00;;;0.93;;
77451;SDS011;66537;52.370;4.832;2023-08-08T12:28:01;5.32;;;1.23;;
77451;SDS011;66537;52.370;4.832;2023-08-08T12:30:27;6.10;;;1.05;;
77451;SDS011;66537;52.370;4.832;2023-08-08T12:32:52;6.07;;;0.98;;
77451;SDS011;66537;52.370;4.832;2023-08-08T12:35:18;5.10;;;0.95;;
77451;SDS011;66537;52.370;4.832;2023-08-08T12:37:45;4.30;;;0.90;;
77451;SDS011;66537;52.370;4.832;2023-08-08T12:40:11;4.97;;;1.15;;
77451;SDS011;66537;52.370;4.832;2023-08-08T12:42:37;5.35;;;1.20;;
77451;SDS011;66537;52.370;4.832;2023-08-08T12:45:02;5.05;;;1.10;;
77451;SDS011;66537;52.370;4.832;2023-08-08T12:47:28;5.68;;;0.90;;
77451;SDS011;66537;52.370;4.832;2023-08-08T12:49:54;6.35;;;1.00;;
77451;SDS011;66537;52.370;4.832;2023-08-08T12:52:19;8.20;;;1.30;;
77451;SDS011;66537;52.370;4.832;2023-08-08T12:54:45;5.32;;;1.05;;
77451;SDS011;66537;52.370;4.832;2023-08-08T12:57:10;5.53;;;0.93;;
77451;SDS011;66537;52.370;4.832;2023-08-08T12:59:35;4.05;;;0.63;;
77451;SDS011;66537;52.370;4.832;2023-08-08T13:02:01;2.90;;;0.70;;
77451;SDS011;66537;52.370;4.832;2023-08-08T13:04:27;3.72;;;0.63;;
77451;SDS011;66537;52.370;4.832;2023-08-08T13:06:52;6.28;;;0.95;;
77451;SDS011;66537;52.370;4.832;2023-08-08T13:09:18;6.95;;;1.13;;
77451;SDS011;66537;52.370;4.832;2023-08-08T13:11:44;9.60;;;1.05;;
77451;SDS011;66537;52.370;4.832;2023-08-08T13:14:10;6.43;;;1.50;;
77451;SDS011;66537;52.370;4.832;2023-08-08T13:16:36;4.15;;;0.95;;
77451;SDS011;66537;52.370;4.832;2023-08-08T13:19:01;9.18;;;1.30;;
77451;SDS011;66537;52.370;4.832;2023-08-08T13:21:28;4.45;;;1.00;;
77451;SDS011;66537;52.370;4.832;2023-08-08T13:23:53;8.88;;;1.15;;
77451;SDS011;66537;52.370;4.832;2023-08-08T13:26:19;21.55;;;3.70;;
77451;SDS011;66537;52.370;4.832;2023-08-08T13:28:44;6.70;;;1.00;;
77451;SDS011;66537;52.370;4.832;2023-08-08T13:31:10;6.53;;;1.10;;
77451;SDS011;66537;52.370;4.832;2023-08-08T13:33:35;4.63;;;0.90;;
77451;SDS011;66537;52.370;4.832;2023-08-08T13:36:01;9.43;;;1.80;;
77451;SDS011;66537;52.370;4.832;2023-08-08T13:38:26;7.13;;;1.27;;
77451;SDS011;66537;52.370;4.832;2023-08-08T13:40:52;7.25;;;1.33;;
77451;SDS011;66537;52.370;4.832;2023-08-08T13:43:18;10.80;;;1.15;;
77451;SDS011;66537;52.370;4.832;2023-08-08T13:45:43;6.85;;;1.67;;
77451;SDS011;66537;52.370;4.832;2023-08-08T13:48:09;7.15;;;1.10;;
77451;SDS011;66537;52.370;4.832;2023-08-08T13:50:35;9.00;;;1.40;;
77451;SDS011;66537;52.370;4.832;2023-08-08T13:53:00;5.30;;;0.70;;
77451;SDS011;66537;52.370;4.832;2023-08-08T13:55:26;7.90;;;1.35;;
77451;SDS011;66537;52.370;4.832;2023-08-08T13:57:52;9.93;;;1.40;;
77451;SDS011;66537;52.370;4.832;2023-08-08T14:00:17;12.25;;;1.70;;
77451;SDS011;66537;52.370;4.832;2023-08-08T14:02:43;9.25;;;1.10;;
77451;SDS011;66537;52.370;4.832;2023-08-08T14:05:08;8.77;;;1.13;;
77451;SDS011;66537;52.370;4.832;2023-08-08T14:07:35;8.93;;;1.55;;
77451;SDS011;66537;52.370;4.832;2023-08-08T14:10:01;8.32;;;1.13;;
77451;SDS011;66537;52.370;4.832;2023-08-08T14:12:27;8.43;;;1.02;;
77451;SDS011;66537;52.370;4.832;2023-08-08T14:14:52;9.57;;;1.27;;
77451;SDS011;66537;52.370;4.832;2023-08-08T14:17:17;8.80;;;1.33;;
77451;SDS011;66537;52.370;4.832;2023-08-08T14:19:43;5.90;;;1.03;;
77451;SDS011;66537;52.370;4.832;2023-08-08T14:22:08;4.10;;;1.17;;
77451;SDS011;66537;52.370;4.832;2023-08-08T14:24:34;6.78;;;1.00;;
77451;SDS011;66537;52.370;4.832;2023-08-08T14:26:59;7.32;;;1.00;;
77451;SDS011;66537;52.370;4.832;2023-08-08T14:29:25;7.75;;;1.50;;
77451;SDS011;66537;52.370;4.832;2023-08-08T14:31:51;9.30;;;1.20;;
77451;SDS011;66537;52.370;4.832;2023-08-08T14:34:16;6.85;;;1.35;;
77451;SDS011;66537;52.370;4.832;2023-08-08T14:36:41;5.27;;;1.00;;
77451;SDS011;66537;52.370;4.832;2023-08-08T14:39:07;6.88;;;1.33;;
77451;SDS011;66537;52.370;4.832;2023-08-08T14:41:33;7.57;;;1.38;;
77451;SDS011;66537;52.370;4.832;2023-08-08T14:43:58;8.93;;;1.48;;
77451;SDS011;66537;52.370;4.832;2023-08-08T14:46:23;3.88;;;1.00;;